sensor_id;sensor_type;location;lat;lon;timestamp;pressure;altitude;pressure_sealevel;temperature;humidity
59063;BME280;44851;45.648;9.004;2023-04-04T00:01:02;98832.78;;;10.23;40.37
59063;BME280;44851;45.648;9.004;2023-04-04T00:03:27;98838.50;;;10.37;40.14
59063;BME280;44851;45.648;9.004;2023-04-04T00:05:53;98833.84;;;10.30;40.27
59063;BME280;44851;45.648;9.004;2023-04-04T00:08:18;98838.94;;;10.22;39.91
59063;BME280;44851;45.648;9.004;2023-04-04T00:10:43;98841.00;;;10.28;39.94
59063;BME280;44851;45.648;9.004;2023-04-04T00:13:09;98833.06;;;10.20;39.46
59063;BME280;44851;45.648;9.004;2023-04-04T00:15:34;98832.41;;;10.08;39.78
59063;BME280;44851;45.648;9.004;2023-04-04T00:18:03;98829.22;;;10.24;39.65
59063;BME280;44851;45.648;9.004;2023-04-04T00:20:29;98839.91;;;10.12;39.37
59063;BME280;44851;45.648;9.004;2023-04-04T00:22:55;98832.78;;;10.23;39.42
59063;BME280;44851;45.648;9.004;2023-04-04T00:25:20;98834.03;;;10.19;39.46
59063;BME280;44851;45.648;9.004;2023-04-04T00:27:48;98830.88;;;10.16;38.99
59063;BME280;44851;45.648;9.004;2023-04-04T00:30:14;98833.91;;;10.11;39.31
59063;BME280;44851;45.648;9.004;2023-04-04T00:32:40;98835.28;;;10.05;39.53
59063;BME280;44851;45.648;9.004;2023-04-04T00:35:06;98837.22;;;9.94;39.79
59063;BME280;44851;45.648;9.004;2023-04-04T00:37:31;98831.84;;;10.05;39.14
59063;BME280;44851;45.648;9.004;2023-04-04T00:39:57;98836.25;;;9.95;39.52
59063;BME280;44851;45.648;9.004;2023-04-04T00:42:22;98832.28;;;9.91;39.14
59063;BME280;44851;45.648;9.004;2023-04-04T00:44:49;98837.50;;;9.91;39.30
59063;BME280;44851;45.648;9.004;2023-04-04T00:47:15;98837.78;;;9.88;38.97
59063;BME280;44851;45.648;9.004;2023-04-04T00:49:40;98828.75;;;9.72;38.80
59063;BME280;44851;45.648;9.004;2023-04-04T00:52:06;98836.69;;;9.51;38.52
59063;BME280;44851;45.648;9.004;2023-04-04T00:54:32;98832.47;;;9.60;38.78
59063;BME280;44851;45.648;9.004;2023-04-04T00:57:00;98838.59;;;9.69;38.66
59063;BME280;44851;45.648;9.004;2023-04-04T00:59:26;98827.38;;;9.59;38.73
59063;BME280;44851;45.648;9.004;2023-04-04T01:01:52;98822.47;;;9.55;38.82
59063;BME280;44851;45.648;9.004;2023-04-04T01:04:17;98822.47;;;9.65;39.31
59063;BME280;44851;45.648;9.004;2023-04-04T01:06:43;98824.09;;;9.47;39.37
59063;BME280;44851;45.648;9.004;2023-04-04T01:09:10;98823.56;;;9.34;39.91
59063;BME280;44851;45.648;9.004;2023-04-04T01:11:37;98822.44;;;9.46;39.81
59063;BME280;44851;45.648;9.004;2023-04-04T01:14:02;98824.66;;;9.60;39.76
59063;BME280;44851;45.648;9.004;2023-04-04T01:16:27;98823.28;;;9.46;39.73
59063;BME280;44851;45.648;9.004;2023-04-04T01:18:53;98817.94;;;9.48;39.88
59063;BME280;44851;45.648;9.004;2023-04-04T01:21:21;98820.53;;;9.48;39.83
59063;BME280;44851;45.648;9.004;2023-04-04T01:24:00;98818.88;;;9.47;39.42
59063;BME280;44851;45.648;9.004;2023-04-04T01:26:26;98820.25;;;9.51;40.08
59063;BME280;44851;45.648;9.004;2023-04-04T01:28:53;98822.44;;;9.36;39.95
59063;BME280;44851;45.648;9.004;2023-04-04T01:31:54;98816.91;;;9.20;40.10
59063;BME280;44851;45.648;9.004;2023-04-04T01:37:35;98814.78;;;9.35;40.26
59063;BME280;44851;45.648;9.004;2023-04-04T01:40:17;98817.22;;;9.17;40.13
59063;BME280;44851;45.648;9.004;2023-04-04T01:42:46;98817.75;;;9.20;40.13
59063;BME280;44851;45.648;9.004;2023-04-04T01:45:11;98813.66;;;9.18;40.38
59063;BME280;44851;45.648;9.004;2023-04-04T01:47:41;98815.69;;;9.14;40.97
59063;BME280;44851;45.648;9.004;2023-04-04T01:50:08;98822.22;;;8.99;40.82
59063;BME280;44851;45.648;9.004;2023-04-04T01:52:33;98815.13;;;9.01;41.15
59063;BME280;44851;45.648;9.004;2023-04-04T01:54:59;98816.34;;;8.97;41.14
59063;BME280;44851;45.648;9.004;2023-04-04T01:57:25;98825.75;;;8.88;41.08
59063;BME280;44851;45.648;9.004;2023-04-04T01:59:50;98817.44;;;9.04;41.52
59063;BME280;44851;45.648;9.004;2023-04-04T02:02:16;98816.06;;;9.00;40.91
59063;BME280;44851;45.648;9.004;2023-04-04T02:04:41;98824.88;;;9.18;41.50
59063;BME280;44851;45.648;9.004;2023-04-04T02:07:07;98817.22;;;9.17;40.97
59063;BME280;44851;45.648;9.004;2023-04-04T02:09:32;98807.47;;;9.09;41.27
59063;BME280;44851;45.648;9.004;2023-04-04T02:11:58;98815.50;;;8.87;41.35
59063;BME280;44851;45.648;9.004;2023-04-04T02:14:24;98808.44;;;9.08;41.46
59063;BME280;44851;45.648;9.004;2023-04-04T02:16:49;98810.34;;;9.25;41.32
59063;BME280;44851;45.648;9.004;2023-04-04T02:19:15;98810.09;;;9.28;41.49
59063;BME280;44851;45.648;9.004;2023-04-04T02:21:40;98812.00;;;9.07;41.40
59063;BME280;44851;45.648;9.004;2023-04-04T02:24:06;98809.25;;;9.09;41.13
59063;BME280;44851;45.648;9.004;2023-04-04T02:26:31;98808.97;;;9.02;41.33
59063;BME280;44851;45.648;9.004;2023-04-04T02:28:56;98802.38;;;8.98;40.75
59063;BME280;44851;45.648;9.004;2023-04-04T02:31:22;98798.56;;;9.02;41.44
59063;BME280;44851;45.648;9.004;2023-04-04T02:33:47;98798.81;;;8.99;41.08
59063;BME280;44851;45.648;9.004;2023-04-04T02:36:13;98803.19;;;8.89;41.19
59063;BME280;44851;45.648;9.004;2023-04-04T02:38:38;98806.34;;;8.92;41.38
59063;BME280;44851;45.648;9.004;2023-04-04T02:41:03;98805.41;;;9.03;42.33
59063;BME280;44851;45.648;9.004;2023-04-04T02:43:29;98803.47;;;9.05;41.33
59063;BME280;44851;45.648;9.004;2023-04-04T02:45:54;98803.47;;;9.05;41.43
59063;BME280;44851;45.648;9.004;2023-04-04T02:48:20;98800.59;;;8.89;41.33
59063;BME280;44851;45.648;9.004;2023-04-04T02:50:45;98800.69;;;8.77;41.42
59063;BME280;44851;45.648;9.004;2023-04-04T02:53:12;98813.44;;;8.81;41.29
59063;BME280;44851;45.648;9.004;2023-04-04T02:55:37;98805.06;;;8.77;40.80
59063;BME280;44851;45.648;9.004;2023-04-04T02:58:03;98802.75;;;8.84;40.88
59063;BME280;44851;45.648;9.004;2023-04-04T03:00:28;98798.50;;;8.73;40.87
59063;BME280;44851;45.648;9.004;2023-04-04T03:02:54;98805.03;;;8.67;41.15
59063;BME280;44851;45.648;9.004;2023-04-04T03:05:22;98808.25;;;8.50;41.82
59063;BME280;44851;45.648;9.004;2023-04-04T03:07:52;98804.72;;;8.51;40.42
59063;BME280;44851;45.648;9.004;2023-04-04T03:10:17;98803.41;;;8.66;40.86
59063;BME280;44851;45.648;9.004;2023-04-04T03:12:44;98807.22;;;8.62;41.03
59063;BME280;44851;45.648;9.004;2023-04-04T03:15:09;98806.38;;;8.62;41.37
59063;BME280;44851;45.648;9.004;2023-04-04T03:17:35;98804.75;;;8.61;41.46
59063;BME280;44851;45.648;9.004;2023-04-04T03:20:01;98802.03;;;8.72;41.15
59063;BME280;44851;45.648;9.004;2023-04-04T03:22:26;98806.91;;;8.56;41.51
59063;BME280;44851;45.648;9.004;2023-04-04T03:24:51;98801.16;;;8.52;41.66
59063;BME280;44851;45.648;9.004;2023-04-04T03:27:17;98811.28;;;8.55;42.24
59063;BME280;44851;45.648;9.004;2023-04-04T03:29:42;98804.19;;;8.57;41.27
59063;BME280;44851;45.648;9.004;2023-04-04T03:32:07;98806.47;;;8.81;42.23
59063;BME280;44851;45.648;9.004;2023-04-04T03:34:33;98811.19;;;8.66;42.48
59063;BME280;44851;45.648;9.004;2023-04-04T03:36:58;98812.78;;;8.58;41.46
59063;BME280;44851;45.648;9.004;2023-04-04T03:39:27;98810.44;;;8.45;41.92
59063;BME280;44851;45.648;9.004;2023-04-04T03:41:54;98812.72;;;8.38;41.72
59063;BME280;44851;45.648;9.004;2023-04-04T03:44:20;98818.06;;;8.37;42.07
59063;BME280;44851;45.648;9.004;2023-04-04T03:46:45;98813.84;;;8.45;42.28
59063;BME280;44851;45.648;9.004;2023-04-04T03:49:10;98821.34;;;8.39;41.46
59063;BME280;44851;45.648;9.004;2023-04-04T03:51:36;98814.06;;;8.33;42.11
59063;BME280;44851;45.648;9.004;2023-04-04T03:54:01;98817.19;;;8.27;42.20
59063;BME280;44851;45.648;9.004;2023-04-04T03:56:27;98816.72;;;8.42;42.32
59063;BME280;44851;45.648;9.004;2023-04-04T03:58:52;98818.94;;;8.57;42.41
59063;BME280;44851;45.648;9.004;2023-04-04T04:01:20;98827.06;;;8.63;42.50
59063;BME280;44851;45.648;9.004;2023-04-04T04:03:45;98829.91;;;8.60;42.69
59063;BME280;44851;45.648;9.004;2023-04-04T04:06:11;98829.47;;;8.55;42.25
59063;BME280;44851;45.648;9.004;2023-04-04T04:08:37;98830.69;;;8.51;42.56
59063;BME280;44851;45.648;9.004;2023-04-04T04:11:05;98830.69;;;8.51;42.99
59063;BME280;44851;45.648;9.004;2023-04-04T04:13:33;98831.13;;;8.56;43.52
59063;BME280;44851;45.648;9.004;2023-04-04T04:15:58;98826.88;;;8.55;43.07
59063;BME280;44851;45.648;9.004;2023-04-04T04:18:23;98829.63;;;8.54;43.38
59063;BME280;44851;45.648;9.004;2023-04-04T04:20:49;98833.38;;;8.40;42.99
59063;BME280;44851;45.648;9.004;2023-04-04T04:23:14;98842.72;;;8.21;42.34
59063;BME280;44851;45.648;9.004;2023-04-04T04:25:39;98844.34;;;8.22;43.63
59063;BME280;44851;45.648;9.004;2023-04-04T04:28:05;98845.91;;;8.35;43.39
59063;BME280;44851;45.648;9.004;2023-04-04T04:30:30;98852.75;;;8.36;43.81
59063;BME280;44851;45.648;9.004;2023-04-04T04:32:56;98849.22;;;8.37;42.95
59063;BME280;44851;45.648;9.004;2023-04-04T04:35:21;98852.22;;;7.90;42.27
59063;BME280;44851;45.648;9.004;2023-04-04T04:37:46;98854.25;;;8.08;42.03
59063;BME280;44851;45.648;9.004;2023-04-04T04:40:12;98853.19;;;8.10;42.77
59063;BME280;44851;45.648;9.004;2023-04-04T04:42:47;98856.31;;;8.35;41.56
59063;BME280;44851;45.648;9.004;2023-04-04T04:45:12;98858.97;;;8.23;42.79
59063;BME280;44851;45.648;9.004;2023-04-04T04:47:38;98870.91;;;8.26;42.96
59063;BME280;44851;45.648;9.004;2023-04-04T04:50:04;98873.91;;;8.31;42.50
59063;BME280;44851;45.648;9.004;2023-04-04T04:52:29;98868.34;;;8.36;42.97
59063;BME280;44851;45.648;9.004;2023-04-04T04:54:56;98879.22;;;8.30;42.77
59063;BME280;44851;45.648;9.004;2023-04-04T04:57:21;98878.34;;;8.19;42.85
59063;BME280;44851;45.648;9.004;2023-04-04T04:59:47;98884.81;;;8.04;42.16
59063;BME280;44851;45.648;9.004;2023-04-04T05:02:14;98880.69;;;8.02;41.42
59063;BME280;44851;45.648;9.004;2023-04-04T05:04:39;98882.47;;;8.01;41.86
59063;BME280;44851;45.648;9.004;2023-04-04T05:07:05;98884.31;;;8.10;41.28
59063;BME280;44851;45.648;9.004;2023-04-04T05:09:32;98882.19;;;8.15;42.20
59063;BME280;44851;45.648;9.004;2023-04-04T05:11:58;98883.03;;;8.25;42.19
59063;BME280;44851;45.648;9.004;2023-04-04T05:14:23;98892.03;;;8.21;42.84
59063;BME280;44851;45.648;9.004;2023-04-04T05:16:49;98896.97;;;8.24;42.62
59063;BME280;44851;45.648;9.004;2023-04-04T05:19:14;98886.13;;;8.19;41.96
59063;BME280;44851;45.648;9.004;2023-04-04T05:21:40;98888.44;;;8.13;43.12
59063;BME280;44851;45.648;9.004;2023-04-04T05:24:06;98887.09;;;8.18;42.96
59063;BME280;44851;45.648;9.004;2023-04-04T05:26:31;98896.34;;;8.11;42.90
59063;BME280;44851;45.648;9.004;2023-04-04T05:28:56;98893.81;;;8.00;42.96
59063;BME280;44851;45.648;9.004;2023-04-04T05:31:23;98893.75;;;7.90;40.83
59063;BME280;44851;45.648;9.004;2023-04-04T05:33:49;98905.19;;;7.88;41.44
59063;BME280;44851;45.648;9.004;2023-04-04T05:36:14;98902.53;;;7.99;40.08
59063;BME280;44851;45.648;9.004;2023-04-04T05:38:40;98906.28;;;8.06;39.75
59063;BME280;44851;45.648;9.004;2023-04-04T05:41:05;98906.84;;;8.10;40.08
59063;BME280;44851;45.648;9.004;2023-04-04T05:43:31;98910.31;;;7.99;39.94
59063;BME280;44851;45.648;9.004;2023-04-04T05:45:56;98915.22;;;8.13;40.37
59063;BME280;44851;45.648;9.004;2023-04-04T05:48:22;98915.47;;;8.10;40.61
59063;BME280;44851;45.648;9.004;2023-04-04T05:50:47;98910.91;;;8.23;40.59
59063;BME280;44851;45.648;9.004;2023-04-04T05:53:12;98916.84;;;8.14;41.86
59063;BME280;44851;45.648;9.004;2023-04-04T05:55:38;98910.00;;;8.13;41.15
59063;BME280;44851;45.648;9.004;2023-04-04T05:58:03;98916.81;;;8.05;40.18
59063;BME280;44851;45.648;9.004;2023-04-04T06:00:29;98926.38;;;7.93;41.02
59063;BME280;44851;45.648;9.004;2023-04-04T06:02:55;98922.47;;;7.98;40.31
59063;BME280;44851;45.648;9.004;2023-04-04T06:05:23;98930.88;;;7.91;40.01
59063;BME280;44851;45.648;9.004;2023-04-04T06:07:48;98930.16;;;8.00;39.54
59063;BME280;44851;45.648;9.004;2023-04-04T06:10:13;98929.28;;;7.79;39.83
59063;BME280;44851;45.648;9.004;2023-04-04T06:12:39;98932.41;;;7.93;40.09
59063;BME280;44851;45.648;9.004;2023-04-04T06:15:05;98941.09;;;8.04;40.43
59063;BME280;44851;45.648;9.004;2023-04-04T06:17:30;98937.75;;;7.81;40.37
59063;BME280;44851;45.648;9.004;2023-04-04T06:19:56;98939.28;;;8.15;39.96
59063;BME280;44851;45.648;9.004;2023-04-04T06:22:21;98937.75;;;8.34;39.30
59063;BME280;44851;45.648;9.004;2023-04-04T06:24:46;98943.16;;;8.21;40.07
59063;BME280;44851;45.648;9.004;2023-04-04T06:27:12;98943.69;;;8.24;40.74
59063;BME280;44851;45.648;9.004;2023-04-04T06:29:37;98944.28;;;8.49;39.64
59063;BME280;44851;45.648;9.004;2023-04-04T06:32:03;98942.28;;;8.52;39.62
59063;BME280;44851;45.648;9.004;2023-04-04T06:34:29;98940.66;;;8.61;39.84
59063;BME280;44851;45.648;9.004;2023-04-04T06:36:55;98942.47;;;8.91;38.19
59063;BME280;44851;45.648;9.004;2023-04-04T06:39:20;98940.38;;;8.85;39.16
59063;BME280;44851;45.648;9.004;2023-04-04T06:41:45;98938.47;;;9.18;39.71
59063;BME280;44851;45.648;9.004;2023-04-04T06:44:12;98949.22;;;9.34;38.47
59063;BME280;44851;45.648;9.004;2023-04-04T06:46:38;98945.94;;;9.42;37.50
59063;BME280;44851;45.648;9.004;2023-04-04T06:49:04;98948.44;;;9.63;37.14
59063;BME280;44851;45.648;9.004;2023-04-04T06:51:31;98952.03;;;10.00;36.83
59063;BME280;44851;45.648;9.004;2023-04-04T06:53:57;98946.28;;;10.26;39.71
59063;BME280;44851;45.648;9.004;2023-04-04T06:56:22;98947.50;;;10.31;36.23
59063;BME280;44851;45.648;9.004;2023-04-04T06:58:48;98948.22;;;9.95;36.11
59063;BME280;44851;45.648;9.004;2023-04-04T07:01:15;98954.22;;;9.66;36.05
59063;BME280;44851;45.648;9.004;2023-04-04T07:03:40;98949.25;;;9.44;36.13
59063;BME280;44851;45.648;9.004;2023-04-04T07:06:05;98949.28;;;9.23;37.07
59063;BME280;44851;45.648;9.004;2023-04-04T07:08:31;98951.69;;;9.36;37.23
59063;BME280;44851;45.648;9.004;2023-04-04T07:10:59;98948.97;;;9.16;37.82
59063;BME280;44851;45.648;9.004;2023-04-04T07:13:25;98949.72;;;9.28;39.25
59063;BME280;44851;45.648;9.004;2023-04-04T07:15:51;98945.66;;;9.35;37.67
59063;BME280;44851;45.648;9.004;2023-04-04T07:18:16;98947.19;;;9.47;37.21
59063;BME280;44851;45.648;9.004;2023-04-04T07:20:42;98947.31;;;9.46;38.04
59063;BME280;44851;45.648;9.004;2023-04-04T07:23:10;98949.06;;;9.36;36.74
59063;BME280;44851;45.648;9.004;2023-04-04T07:25:37;98953.59;;;9.34;37.86
59063;BME280;44851;45.648;9.004;2023-04-04T07:28:02;98948.16;;;9.56;38.66
59063;BME280;44851;45.648;9.004;2023-04-04T07:30:28;98947.78;;;9.70;39.32
59063;BME280;44851;45.648;9.004;2023-04-04T07:32:59;98947.44;;;9.35;36.88
59063;BME280;44851;45.648;9.004;2023-04-04T07:35:25;98954.16;;;9.47;37.67
59063;BME280;44851;45.648;9.004;2023-04-04T07:37:51;98945.16;;;9.51;37.65
59063;BME280;44851;45.648;9.004;2023-04-04T07:40:16;98940.88;;;9.40;36.47
59063;BME280;44851;45.648;9.004;2023-04-04T07:42:43;98942.16;;;9.75;36.21
59063;BME280;44851;45.648;9.004;2023-04-04T07:45:09;98942.56;;;10.48;35.26
59063;BME280;44851;45.648;9.004;2023-04-04T07:47:34;98945.38;;;10.83;36.15
59063;BME280;44851;45.648;9.004;2023-04-04T07:50:00;98942.94;;;11.37;34.79
59063;BME280;44851;45.648;9.004;2023-04-04T07:52:25;98944.53;;;11.48;33.85
59063;BME280;44851;45.648;9.004;2023-04-04T07:54:51;98936.00;;;11.73;35.04
59063;BME280;44851;45.648;9.004;2023-04-04T07:57:17;98940.78;;;11.78;33.16
59063;BME280;44851;45.648;9.004;2023-04-04T07:59:42;98937.16;;;12.06;32.67
59063;BME280;44851;45.648;9.004;2023-04-04T08:02:08;98934.16;;;12.01;32.85
59063;BME280;44851;45.648;9.004;2023-04-04T08:04:34;98935.41;;;12.33;32.40
59063;BME280;44851;45.648;9.004;2023-04-04T08:06:59;98940.94;;;12.12;29.86
59063;BME280;44851;45.648;9.004;2023-04-04T08:09:24;98935.56;;;12.31;31.67
59063;BME280;44851;45.648;9.004;2023-04-04T08:11:50;98934.81;;;12.65;32.65
59063;BME280;44851;45.648;9.004;2023-04-04T08:14:15;98931.19;;;12.92;31.51
59063;BME280;44851;45.648;9.004;2023-04-04T08:16:41;98933.53;;;13.03;29.84
59063;BME280;44851;45.648;9.004;2023-04-04T08:19:06;98931.72;;;12.95;33.24
59063;BME280;44851;45.648;9.004;2023-04-04T08:21:32;98931.72;;;12.43;31.38
59063;BME280;44851;45.648;9.004;2023-04-04T08:23:58;98940.63;;;12.33;33.20
59063;BME280;44851;45.648;9.004;2023-04-04T08:26:23;98942.19;;;12.43;33.56
59063;BME280;44851;45.648;9.004;2023-04-04T08:28:48;98937.06;;;12.16;32.30
59063;BME280;44851;45.648;9.004;2023-04-04T08:31:14;98937.13;;;11.88;31.68
59063;BME280;44851;45.648;9.004;2023-04-04T08:33:39;98936.00;;;11.73;32.76
59063;BME280;44851;45.648;9.004;2023-04-04T08:36:05;98938.66;;;11.46;32.03
59063;BME280;44851;45.648;9.004;2023-04-04T08:38:31;98934.88;;;11.76;31.95
59063;BME280;44851;45.648;9.004;2023-04-04T08:40:56;98932.31;;;11.66;33.21
59063;BME280;44851;45.648;9.004;2023-04-04T08:43:23;98938.44;;;11.92;31.68
59063;BME280;44851;45.648;9.004;2023-04-04T08:45:52;98934.16;;;12.01;32.64
59063;BME280;44851;45.648;9.004;2023-04-04T08:48:19;98934.31;;;12.00;32.84
59063;BME280;44851;45.648;9.004;2023-04-04T08:50:45;98934.91;;;11.94;31.62
59063;BME280;44851;45.648;9.004;2023-04-04T08:53:14;98939.59;;;11.90;31.93
59063;BME280;44851;45.648;9.004;2023-04-04T08:55:40;98936.06;;;11.81;32.26
59063;BME280;44851;45.648;9.004;2023-04-04T08:58:07;98935.31;;;11.53;32.36
59063;BME280;44851;45.648;9.004;2023-04-04T09:00:33;98932.72;;;11.26;32.83
59063;BME280;44851;45.648;9.004;2023-04-04T09:05:47;98923.94;;;11.45;31.75
59063;BME280;44851;45.648;9.004;2023-04-04T09:08:13;98929.03;;;11.46;33.72
59063;BME280;44851;45.648;9.004;2023-04-04T09:10:41;98927.09;;;11.48;32.01
59063;BME280;44851;45.648;9.004;2023-04-04T09:13:08;98924.41;;;11.58;33.21
59063;BME280;44851;45.648;9.004;2023-04-04T09:15:36;98924.38;;;12.03;33.11
59063;BME280;44851;45.648;9.004;2023-04-04T09:18:03;98930.69;;;12.36;32.05
59063;BME280;44851;45.648;9.004;2023-04-04T09:20:41;98925.59;;;12.87;31.06
59063;BME280;44851;45.648;9.004;2023-04-04T09:23:10;98917.19;;;13.52;33.22
59063;BME280;44851;45.648;9.004;2023-04-04T09:25:41;98918.97;;;13.01;30.49
59063;BME280;44851;45.648;9.004;2023-04-04T09:28:08;98929.75;;;12.98;30.66
59063;BME280;44851;45.648;9.004;2023-04-04T09:30:34;98921.88;;;13.32;30.95
59063;BME280;44851;45.648;9.004;2023-04-04T09:33:06;98922.84;;;13.81;31.31
59063;BME280;44851;45.648;9.004;2023-04-04T09:35:34;98919.13;;;13.41;28.30
59063;BME280;44851;45.648;9.004;2023-04-04T09:38:00;98923.16;;;13.78;31.75
59063;BME280;44851;45.648;9.004;2023-04-04T09:40:27;98922.16;;;13.71;29.39
59063;BME280;44851;45.648;9.004;2023-04-04T09:42:54;98920.19;;;13.65;30.72
59063;BME280;44851;45.648;9.004;2023-04-04T09:45:23;98920.94;;;13.33;29.79
59063;BME280;44851;45.648;9.004;2023-04-04T09:47:50;98932.22;;;12.73;30.66
59063;BME280;44851;45.648;9.004;2023-04-04T09:50:23;98919.63;;;12.42;29.58
59063;BME280;44851;45.648;9.004;2023-04-04T09:52:49;98920.47;;;12.25;32.11
59063;BME280;44851;45.648;9.004;2023-04-04T09:55:15;98910.00;;;12.69;32.43
59063;BME280;44851;45.648;9.004;2023-04-04T09:57:41;98917.03;;;13.45;32.27
59063;BME280;44851;45.648;9.004;2023-04-04T10:00:07;98913.75;;;13.09;30.31
59063;BME280;44851;45.648;9.004;2023-04-04T10:02:36;98913.63;;;13.61;30.48
59063;BME280;44851;45.648;9.004;2023-04-04T10:05:02;98914.66;;;13.92;30.44
59063;BME280;44851;45.648;9.004;2023-04-04T10:07:29;98916.66;;;13.32;29.87
59063;BME280;44851;45.648;9.004;2023-04-04T10:09:55;98917.56;;;12.80;30.59
59063;BME280;44851;45.648;9.004;2023-04-04T10:12:23;98913.34;;;12.87;31.01
59063;BME280;44851;45.648;9.004;2023-04-04T10:14:57;98913.41;;;13.04;32.68
59063;BME280;44851;45.648;9.004;2023-04-04T10:17:23;98910.31;;;13.00;31.88
59063;BME280;44851;45.648;9.004;2023-04-04T10:19:51;98911.13;;;13.01;33.24
59063;BME280;44851;45.648;9.004;2023-04-04T10:22:19;98903.28;;;13.01;31.80
59063;BME280;44851;45.648;9.004;2023-04-04T10:24:45;98904.44;;;12.72;30.77
59063;BME280;44851;45.648;9.004;2023-04-04T10:27:11;98909.91;;;13.21;31.20
59063;BME280;44851;45.648;9.004;2023-04-04T10:29:36;98900.88;;;13.74;31.58
59063;BME280;44851;45.648;9.004;2023-04-04T10:32:05;98890.75;;;14.04;29.89
59063;BME280;44851;45.648;9.004;2023-04-04T10:34:48;98897.63;;;13.88;29.97
59063;BME280;44851;45.648;9.004;2023-04-04T10:37:24;98895.66;;;14.15;31.93
59063;BME280;44851;45.648;9.004;2023-04-04T10:42:31;98898.94;;;14.25;29.51
59063;BME280;44851;45.648;9.004;2023-04-04T10:45:06;98898.63;;;14.28;29.42
59063;BME280;44851;45.648;9.004;2023-04-04T10:47:33;98895.97;;;14.20;30.99
59063;BME280;44851;45.648;9.004;2023-04-04T10:49:59;98894.31;;;14.51;29.92
59063;BME280;44851;45.648;9.004;2023-04-04T10:52:27;98894.31;;;14.51;30.58
59063;BME280;44851;45.648;9.004;2023-04-04T10:54:56;98892.22;;;13.82;29.58
59063;BME280;44851;45.648;9.004;2023-04-04T10:57:23;98895.16;;;13.95;29.21
59063;BME280;44851;45.648;9.004;2023-04-04T11:00:02;98891.41;;;13.81;30.18
59063;BME280;44851;45.648;9.004;2023-04-04T11:03:00;98887.13;;;14.05;32.23
59063;BME280;44851;45.648;9.004;2023-04-04T11:05:35;98880.69;;;14.64;29.03
59063;BME280;44851;45.648;9.004;2023-04-04T11:08:08;98886.28;;;15.09;30.11
59063;BME280;44851;45.648;9.004;2023-04-04T11:10:46;98877.59;;;15.08;28.00
59063;BME280;44851;45.648;9.004;2023-04-04T11:13:26;98873.59;;;15.20;27.91
59063;BME280;44851;45.648;9.004;2023-04-04T11:20:56;98875.03;;;15.31;27.60
59063;BME280;44851;45.648;9.004;2023-04-04T11:23:23;98868.41;;;14.57;27.11
59063;BME280;44851;45.648;9.004;2023-04-04T11:25:54;98863.88;;;14.18;29.03
59063;BME280;44851;45.648;9.004;2023-04-04T11:44:17;98850.16;;;16.11;27.15
59063;BME280;44851;45.648;9.004;2023-04-04T11:46:43;98843.97;;;16.41;26.80
59063;BME280;44851;45.648;9.004;2023-04-04T11:49:10;98842.34;;;15.79;25.98
59063;BME280;44851;45.648;9.004;2023-04-04T11:51:37;98844.16;;;16.17;26.98
59063;BME280;44851;45.648;9.004;2023-04-04T11:54:05;98843.88;;;16.49;26.94
59063;BME280;44851;45.648;9.004;2023-04-04T11:56:35;98845.94;;;16.39;26.75
59063;BME280;44851;45.648;9.004;2023-04-04T11:59:02;98847.03;;;16.07;26.24
59063;BME280;44851;45.648;9.004;2023-04-04T12:01:28;98846.84;;;16.08;25.52
59063;BME280;44851;45.648;9.004;2023-04-04T12:03:54;98839.84;;;16.24;25.89
59063;BME280;44851;45.648;9.004;2023-04-04T12:06:19;98836.34;;;16.31;26.55
59063;BME280;44851;45.648;9.004;2023-04-04T12:08:45;98825.59;;;16.77;27.10
59063;BME280;44851;45.648;9.004;2023-04-04T12:11:14;98835.63;;;17.03;25.86
59063;BME280;44851;45.648;9.004;2023-04-04T12:13:42;98825.47;;;17.15;26.76
59063;BME280;44851;45.648;9.004;2023-04-04T12:16:11;98831.47;;;17.09;27.07
59063;BME280;44851;45.648;9.004;2023-04-04T12:18:36;98822.00;;;16.49;27.86
59063;BME280;44851;45.648;9.004;2023-04-04T12:21:02;98826.97;;;16.29;24.63
59063;BME280;44851;45.648;9.004;2023-04-04T12:23:36;98818.75;;;16.32;26.71
59063;BME280;44851;45.648;9.004;2023-04-04T12:26:02;98820.72;;;15.92;25.79
59063;BME280;44851;45.648;9.004;2023-04-04T12:28:30;98822.44;;;16.23;27.53
59063;BME280;44851;45.648;9.004;2023-04-04T12:30:59;98812.75;;;16.38;25.39
59063;BME280;44851;45.648;9.004;2023-04-04T12:33:30;98816.03;;;16.02;26.09
59063;BME280;44851;45.648;9.004;2023-04-04T12:35:58;98815.13;;;16.63;29.63
59063;BME280;44851;45.648;9.004;2023-04-04T12:38:24;98809.97;;;16.91;25.71
59063;BME280;44851;45.648;9.004;2023-04-04T12:40:51;98806.13;;;17.08;26.44
59063;BME280;44851;45.648;9.004;2023-04-04T12:43:17;98804.22;;;17.17;25.58
59063;BME280;44851;45.648;9.004;2023-04-04T12:45:43;98801.16;;;16.98;26.50
59063;BME280;44851;45.648;9.004;2023-04-04T12:48:10;98805.34;;;16.78;24.63
59063;BME280;44851;45.648;9.004;2023-04-04T12:50:54;98798.88;;;17.10;26.01
59063;BME280;44851;45.648;9.004;2023-04-04T12:53:26;98803.28;;;17.46;25.83
59063;BME280;44851;45.648;9.004;2023-04-04T12:55:53;98795.84;;;17.28;24.89
59063;BME280;44851;45.648;9.004;2023-04-04T12:58:20;98790.41;;;17.15;23.91
59063;BME280;44851;45.648;9.004;2023-04-04T13:00:51;98795.84;;;17.28;24.06
59063;BME280;44851;45.648;9.004;2023-04-04T13:03:19;98789.03;;;17.19;25.27
59063;BME280;44851;45.648;9.004;2023-04-04T13:05:47;98785.59;;;17.18;24.71
59063;BME280;44851;45.648;9.004;2023-04-04T13:08:14;98790.47;;;16.85;26.41
59063;BME280;44851;45.648;9.004;2023-04-04T13:15:59;98781.78;;;17.42;25.05
59063;BME280;44851;45.648;9.004;2023-04-04T13:18:26;98777.97;;;17.08;23.87
59063;BME280;44851;45.648;9.004;2023-04-04T13:20:56;98770.81;;;17.02;23.92
59063;BME280;44851;45.648;9.004;2023-04-04T13:23:22;98773.00;;;17.13;23.97
59063;BME280;44851;45.648;9.004;2023-04-04T13:25:47;98764.59;;;17.25;25.28
59063;BME280;44851;45.648;9.004;2023-04-04T13:28:12;98770.31;;;16.92;24.26
59063;BME280;44851;45.648;9.004;2023-04-04T13:30:38;98766.03;;;16.91;24.72
59063;BME280;44851;45.648;9.004;2023-04-04T13:33:08;98755.09;;;17.09;24.83
59063;BME280;44851;45.648;9.004;2023-04-04T13:35:34;98755.09;;;16.73;25.51
59063;BME280;44851;45.648;9.004;2023-04-04T13:37:59;98756.53;;;16.90;25.25